• Join FlightAware (Why Join?)
  • Login
  • US Flag 
12:00PM EDT


 

Airport Tracker/Info


-or-


 

Live Flight TrackerFlight Track Log ✈ CPT8555 ✈ 04-May-2013 ✈ KBIS - KDIK

Flight Track Log - Related Links

Times and Time Zones

All times are in EDT time to prevent confusion due to time zone crossing. See the CPT8555 flight status page for this flight to view local times or setup timezone preferences in your user account.

Time Position Orientation Groundspeed Altitude Reporting Facility
EDT Latitude Longitude Course Direction KTS MPH feet Rate Location/Type
10:49AM 46.7733 -100.9181 275° West 145 167 4,600  Level Minneapolis Center
10:50AM 46.7800 -100.9844 278° West 162 186 4,600  Level Minneapolis Center
10:51AM 46.7839 -101.0500 275° West 160 184 4,600  Level Minneapolis Center
10:52AM 46.7667 -101.0249 270° West  Level FlightAware Approximate
10:52AM 46.7864 -101.1144 273° West 157 181 4,600  Level Minneapolis Center
10:53AM 46.7685 -101.0733 276° West  Level FlightAware Approximate
10:53AM 46.7894 -101.1794 274° West 158 182 4,600  Level Minneapolis Center
10:54AM 46.7928 -101.2431 274° West 155 178 4,600  Level Minneapolis Center
10:55AM 46.7958 -101.3069 274° West 156 180 4,600  Level Minneapolis Center
10:56AM 46.7989 -101.3717 274° West 157 181 4,600  Level Minneapolis Center
10:57AM 46.8025 -101.4372 275° West 158 182 4,600  Level Minneapolis Center
10:58AM 46.8053 -101.5019 274° West 157 181 4,600  Level Minneapolis Center
10:59AM 46.8081 -101.5669 274° West 157 181 4,600  Level Minneapolis Center
11:00AM 46.8114 -101.6311 274° West 157 181 4,600 -60 Level Minneapolis Center
11:01AM 46.8147 -101.6953 274° West 156 180 4,500 -60 Descending Minneapolis Center
11:02AM 46.8169 -101.7606 273° West 158 182 4,500  Level Minneapolis Center
11:03AM 46.8214 -101.8247 276° West 157 181 4,500  Level Minneapolis Center
11:04AM 46.8247 -101.8872 274° West 154 177 4,500  Level Minneapolis Center
11:05AM 46.8281 -101.9411 275° West 152 175 4,500  Level Minneapolis Center
11:07AM 46.8291 -102.0185 271° West  Level FlightAware Approximate
11:14AM 46.8331 -102.3758 271° West  Level FlightAware Approximate
11:15AM 46.8356 -102.4268 277° West  Level FlightAware Approximate
11:16AM 46.8398 -102.4775 277° West  Level FlightAware Approximate
11:17AM 46.8441 -102.5282 277° West  Level FlightAware Approximate
11:18AM 46.8483 -102.5788 277° West  Level FlightAware Approximate
11:19AM 46.8333 -102.6169 250° West  Level FlightAware Approximate
11:20AM 46.8213 -102.6648 250° West  Level FlightAware Approximate
11:21AM 46.8084 -102.7122 247° West  Level FlightAware Approximate
11:22AM 46.7950 -102.7593 247° West  Level FlightAware Approximate
11:23AM 46.7833 -102.8000 247° West  Level FlightAware Approximate
11:24AM 46.7973 -102.8019 247° West  Level Estimated
11:25AM 46.7973 -102.8019 247° West  Level Estimated
11:26AM 46.7973 -102.8019 247° West  Level Estimated